createdAt,value
2018-01-29T00:00:48.320Z,99275.68
2018-01-29T00:01:52.927Z,99267.80
2018-01-29T00:02:57.506Z,99266.14
2018-01-29T00:04:02.188Z,99270.39
2018-01-29T00:05:07.007Z,99270.36
2018-01-29T00:06:11.996Z,99265.78
2018-01-29T00:07:16.493Z,99266.12
2018-01-29T00:08:21.110Z,99272.79
2018-01-29T00:09:26.489Z,99272.86
2018-01-29T00:10:31.443Z,99279.91
2018-01-29T00:11:36.371Z,99274.47
2018-01-29T00:12:41.407Z,99273.18
2018-01-29T00:13:45.949Z,99275.72
2018-01-29T00:14:50.519Z,99263.63
2018-01-29T00:15:55.057Z,99272.05
2018-01-29T00:16:59.783Z,99267.12
2018-01-29T00:18:04.527Z,99276.32
2018-01-29T00:19:09.713Z,99276.73
2018-01-29T00:20:14.403Z,99268.92
2018-01-29T00:21:19.133Z,99282.59
2018-01-29T00:22:23.952Z,99268.85
2018-01-29T00:23:28.638Z,99265.45
2018-01-29T00:24:33.321Z,99260.45
2018-01-29T00:25:38.384Z,99260.42
2018-01-29T00:26:43.066Z,99264.50
2018-01-29T00:27:47.782Z,99269.11
2018-01-29T00:28:52.592Z,99268.45
2018-01-29T00:29:57.291Z,99257.77
2018-01-29T00:31:01.989Z,99274.80
2018-01-29T00:32:07.090Z,99277.72
2018-01-29T00:33:11.852Z,99279.81
2018-01-29T00:34:16.582Z,99274.01
2018-01-29T00:35:21.243Z,99270.70
2018-01-29T00:36:25.942Z,99266.02
2018-01-29T00:37:30.613Z,99261.86
2018-01-29T00:38:35.759Z,99269.30
2018-01-29T00:39:40.476Z,99268.54
2018-01-29T00:40:45.182Z,99271.16
2018-01-29T00:41:49.869Z,99262.72
2018-01-29T00:42:54.533Z,99264.36
2018-01-29T00:43:59.241Z,99262.77
2018-01-29T00:45:04.328Z,99258.14
2018-01-29T00:46:09.017Z,99257.33
2018-01-29T00:47:13.745Z,99261.50
2018-01-29T00:48:18.463Z,99262.41
2018-01-29T00:49:23.152Z,99266.55
2018-01-29T00:50:27.896Z,99270.77
2018-01-29T00:51:33.102Z,99262.87
2018-01-29T00:52:37.789Z,99263.84
2018-01-29T00:53:42.498Z,99262.89
2018-01-29T00:54:47.168Z,99265.35
2018-01-29T00:55:52.031Z,99259.14
2018-01-29T00:56:56.687Z,99259.95
2018-01-29T00:58:01.693Z,99257.13
2018-01-29T00:59:06.420Z,99259.23
2018-01-29T01:00:11.122Z,99251.77
2018-01-29T01:01:15.825Z,99261.69
2018-01-29T01:02:20.502Z,99248.41
2018-01-29T01:03:25.225Z,99255.50
2018-01-29T01:04:30.393Z,99260.57
2018-01-29T01:05:35.148Z,99256.84
2018-01-29T01:06:39.870Z,99255.22
2018-01-29T01:07:44.536Z,99254.80
2018-01-29T01:08:49.210Z,99258.53
2018-01-29T01:09:53.921Z,99259.37
2018-01-29T01:10:58.887Z,99254.22
2018-01-29T01:12:03.798Z,99263.73
2018-01-29T01:13:08.456Z,99259.58
2018-01-29T01:14:13.178Z,99259.22
2018-01-29T01:15:18.037Z,99267.41
2018-01-29T01:16:22.740Z,99262.51
2018-01-29T01:17:27.813Z,99256.26
2018-01-29T01:18:32.508Z,99262.09
2018-01-29T01:19:37.217Z,99259.98
2018-01-29T01:20:41.947Z,99252.59
2018-01-29T01:21:46.681Z,99263.71
2018-01-29T01:22:51.437Z,99265.90
2018-01-29T01:23:56.460Z,99259.83
2018-01-29T01:25:01.161Z,99256.83
2018-01-29T01:26:05.882Z,99248.08
2018-01-29T01:27:10.568Z,99247.60
2018-01-29T01:28:15.326Z,99234.07
2018-01-29T01:29:20.065Z,99243.66
2018-01-29T01:30:25.140Z,99245.38
2018-01-29T01:31:29.835Z,99240.03
2018-01-29T01:32:34.474Z,99233.80
2018-01-29T01:33:39.083Z,99245.75
2018-01-29T01:34:43.701Z,99249.54
2018-01-29T01:35:48.410Z,99225.86
2018-01-29T01:36:53.387Z,99239.98
2018-01-29T01:37:58.000Z,99238.23
2018-01-29T01:39:02.615Z,99246.14
2018-01-29T01:40:07.263Z,99242.38
2018-01-29T01:41:11.970Z,99237.80
2018-01-29T01:42:16.576Z,99238.68
2018-01-29T01:43:21.649Z,99236.11
2018-01-29T01:44:26.258Z,99237.41
2018-01-29T01:45:30.927Z,99237.00
2018-01-29T01:46:35.610Z,99238.23
2018-01-29T01:47:40.211Z,99237.09
2018-01-29T01:48:44.838Z,99241.70
2018-01-29T01:49:49.739Z,99233.75
2018-01-29T01:50:54.378Z,99237.55
2018-01-29T01:51:58.979Z,99230.05
2018-01-29T01:53:03.600Z,99227.00
2018-01-29T01:54:08.291Z,99234.10
2018-01-29T01:55:12.902Z,99232.95
2018-01-29T01:56:17.846Z,99236.30
2018-01-29T01:57:22.478Z,99228.40
2018-01-29T01:58:27.074Z,99225.45
2018-01-29T01:59:31.686Z,99227.08
2018-01-29T02:00:36.320Z,99220.14
2018-01-29T02:01:40.955Z,99223.95
2018-01-29T02:02:45.936Z,99221.05
2018-01-29T02:03:50.581Z,99213.16
2018-01-29T02:04:55.178Z,99215.72
2018-01-29T02:05:59.773Z,99211.98
2018-01-29T02:07:04.438Z,99208.72
2018-01-29T02:08:09.148Z,99210.79
2018-01-29T02:09:14.234Z,99208.77
2018-01-29T02:10:18.952Z,99205.03
2018-01-29T02:11:23.579Z,99201.71
2018-01-29T02:12:28.168Z,99204.66
2018-01-29T02:13:32.815Z,99194.69
2018-01-29T02:14:37.439Z,99201.37
2018-01-29T02:15:43.077Z,99199.30
2018-01-29T02:16:47.605Z,99196.35
2018-01-29T02:17:52.237Z,99188.41
2018-01-29T02:18:56.839Z,99187.70
2018-01-29T02:20:01.448Z,99184.31
2018-01-29T02:21:06.037Z,99182.63
2018-01-29T02:22:11.026Z,99183.47
2018-01-29T02:23:15.759Z,99179.31
2018-01-29T02:24:20.378Z,99180.13
2018-01-29T02:25:24.941Z,99178.47
2018-01-29T02:26:29.607Z,99169.81
2018-01-29T02:27:34.327Z,99167.75
2018-01-29T02:28:39.467Z,99173.55
2018-01-29T02:29:44.163Z,99167.69
2018-01-29T02:30:48.874Z,99165.16
2018-01-29T02:31:53.509Z,99156.80
2018-01-29T02:32:58.119Z,99168.92
2018-01-29T02:34:02.732Z,99158.52
2018-01-29T02:35:07.667Z,99166.38
2018-01-29T02:36:18.259Z,99163.91
2018-01-29T02:37:23.024Z,99160.55
2018-01-29T02:38:27.682Z,99162.24
2018-01-29T02:39:32.748Z,99158.06
2018-01-29T02:40:37.878Z,99162.26
2018-01-29T02:41:43.069Z,99154.72
2018-01-29T02:42:47.647Z,99162.66
2018-01-29T02:43:52.331Z,99152.19
2018-01-29T02:44:57.111Z,99155.55
2018-01-29T02:46:01.963Z,99156.33
2018-01-29T02:47:07.012Z,99158.01
2018-01-29T02:48:11.765Z,99150.50
2018-01-29T02:49:16.518Z,99149.22
2018-01-29T02:50:21.352Z,99148.81
2018-01-29T02:51:26.250Z,99150.81
2018-01-29T02:52:31.114Z,99148.33
2018-01-29T02:53:36.525Z,99148.70
2018-01-29T02:54:41.375Z,99149.94
2018-01-29T02:55:46.241Z,99144.92
2018-01-29T02:56:51.052Z,99147.85
2018-01-29T02:57:55.844Z,99141.99
2018-01-29T02:59:00.678Z,99136.58
2018-01-29T03:00:05.988Z,99137.34
2018-01-29T03:01:10.765Z,99141.51
2018-01-29T03:02:15.463Z,99141.05
2018-01-29T03:03:20.234Z,99137.67
2018-01-29T03:04:24.818Z,99138.94
2018-01-29T03:05:29.365Z,99136.45
2018-01-29T03:06:34.391Z,99131.05
2018-01-29T03:07:38.923Z,99133.91
2018-01-29T03:08:43.419Z,99136.80
2018-01-29T03:09:47.926Z,99125.95
2018-01-29T03:10:52.491Z,99131.83
2018-01-29T03:11:57.129Z,99134.69
2018-01-29T03:13:02.070Z,99134.28
2018-01-29T03:14:06.586Z,99134.22
2018-01-29T03:15:11.399Z,99130.86
2018-01-29T03:16:15.923Z,99126.68
2018-01-29T03:17:20.423Z,99122.93
2018-01-29T03:18:24.950Z,99128.34
2018-01-29T03:19:30.081Z,99129.14
2018-01-29T03:20:34.796Z,99122.39
2018-01-29T03:21:39.451Z,99124.91
2018-01-29T03:22:44.133Z,99128.66
2018-01-29T03:23:48.868Z,99124.44
2018-01-29T03:24:53.546Z,99129.02
2018-01-29T03:25:58.816Z,99127.70
2018-01-29T03:27:03.427Z,99128.16
2018-01-29T03:28:08.318Z,99129.76
2018-01-29T03:29:12.917Z,99128.02
2018-01-29T03:30:17.876Z,99129.69
2018-01-29T03:31:22.443Z,99132.56
2018-01-29T03:32:27.500Z,99129.22
2018-01-29T03:33:32.097Z,99127.13
2018-01-29T03:34:36.771Z,99126.83
2018-01-29T03:35:41.454Z,99123.39
2018-01-29T03:36:46.347Z,99117.53
2018-01-29T03:37:51.354Z,99125.86
2018-01-29T03:38:56.592Z,99120.07
2018-01-29T03:40:01.393Z,99124.17
2018-01-29T03:41:06.140Z,99131.23
2018-01-29T03:42:10.869Z,99125.84
2018-01-29T03:43:15.641Z,99118.77
2018-01-29T03:44:20.391Z,99124.95
2018-01-29T03:45:25.522Z,99130.77
2018-01-29T03:46:30.317Z,99126.67
2018-01-29T03:47:35.062Z,99120.37
2018-01-29T03:48:39.830Z,99120.02
2018-01-29T03:49:44.670Z,99119.99
2018-01-29T03:50:49.471Z,99113.75
2018-01-29T03:51:54.650Z,99119.64
2018-01-29T03:52:59.435Z,99115.45
2018-01-29T03:54:04.778Z,99122.50
2018-01-29T03:55:09.530Z,99111.20
2018-01-29T03:56:14.255Z,99119.94
2018-01-29T03:57:19.078Z,99111.55
2018-01-29T03:58:24.136Z,99114.11
2018-01-29T03:59:28.900Z,99102.88
2018-01-29T04:00:33.599Z,99099.94
2018-01-29T04:01:38.306Z,99097.84
2018-01-29T04:02:43.057Z,99098.23
2018-01-29T04:03:47.792Z,99097.38
2018-01-29T04:04:52.886Z,99085.73
2018-01-29T04:05:57.630Z,99092.32
2018-01-29T04:07:02.366Z,99093.53
2018-01-29T04:08:07.165Z,99078.14
2018-01-29T04:09:12.029Z,99076.13
2018-01-29T04:10:16.750Z,99075.70
2018-01-29T04:11:21.941Z,99071.59
2018-01-29T04:12:26.683Z,99067.79
2018-01-29T04:13:31.426Z,99070.25
2018-01-29T04:14:36.165Z,99066.45
2018-01-29T04:15:40.918Z,99072.73
2018-01-29T04:16:45.681Z,99067.70
2018-01-29T04:17:50.917Z,99065.19
2018-01-29T04:18:55.621Z,99061.77
2018-01-29T04:20:00.344Z,99061.70
2018-01-29T04:21:05.103Z,99056.34
2018-01-29T04:22:09.885Z,99062.58
2018-01-29T04:23:15.069Z,99062.58
2018-01-29T04:24:19.808Z,99060.91
2018-01-29T04:25:24.474Z,99062.97
2018-01-29T04:26:29.145Z,99059.97
2018-01-29T04:27:34.004Z,99058.31
2018-01-29T04:28:38.818Z,99059.55
2018-01-29T04:29:44.007Z,99068.69
2018-01-29T04:30:48.765Z,99068.23
2018-01-29T04:31:53.518Z,99062.83
2018-01-29T04:32:58.222Z,99064.55
2018-01-29T04:34:02.963Z,99066.20
2018-01-29T04:35:07.762Z,99060.41
2018-01-29T04:36:12.930Z,99060.75
2018-01-29T04:37:17.692Z,99064.02
2018-01-29T04:38:22.477Z,99064.05
2018-01-29T04:39:27.226Z,99064.51
2018-01-29T04:40:31.968Z,99062.75
2018-01-29T04:41:36.641Z,99063.05
2018-01-29T04:42:41.825Z,99052.67
2018-01-29T04:43:46.931Z,99060.57
2018-01-29T04:44:51.846Z,99066.45
2018-01-29T04:45:56.897Z,99061.06
2018-01-29T04:47:01.825Z,99053.98
2018-01-29T04:48:06.618Z,99061.06
2018-01-29T04:49:11.739Z,99063.26
2018-01-29T04:50:16.538Z,99048.51
2018-01-29T04:51:21.280Z,99058.84
2018-01-29T04:52:26.014Z,99053.52
2018-01-29T04:53:30.891Z,99048.18
2018-01-29T04:54:35.653Z,99043.55
2018-01-29T04:55:40.890Z,99050.63
2018-01-29T04:56:45.619Z,99056.53
2018-01-29T04:57:50.399Z,99053.62
2018-01-29T04:58:55.154Z,99065.19
2018-01-29T04:59:59.912Z,99061.06
2018-01-29T05:01:04.679Z,99068.09
2018-01-29T05:02:09.377Z,99064.80
2018-01-29T05:03:14.091Z,99069.78
2018-01-29T05:04:18.839Z,99063.11
2018-01-29T05:05:23.564Z,99073.19
2018-01-29T05:06:28.276Z,99069.02
2018-01-29T05:07:33.308Z,99073.97
2018-01-29T05:08:38.027Z,99068.14
2018-01-29T05:09:42.747Z,99072.73
2018-01-29T05:10:47.469Z,99081.05
2018-01-29T05:11:52.205Z,99068.94
2018-01-29T05:12:56.937Z,99056.75
2018-01-29T05:14:02.099Z,99061.64
2018-01-29T05:15:06.848Z,99059.64
2018-01-29T05:16:11.581Z,99064.30
2018-01-29T05:17:16.394Z,99065.59
2018-01-29T05:18:21.133Z,99071.83
2018-01-29T05:19:25.856Z,99062.19
2018-01-29T05:20:31.022Z,99064.54
2018-01-29T05:21:35.798Z,99069.13
2018-01-29T05:22:40.518Z,99067.44
2018-01-29T05:23:45.258Z,99061.59
2018-01-29T05:24:50.120Z,99064.57
2018-01-29T05:25:54.886Z,99063.31
2018-01-29T05:27:00.085Z,99065.02
2018-01-29T05:28:04.834Z,99063.75
2018-01-29T05:29:09.595Z,99061.62
2018-01-29T05:30:14.391Z,99053.60
2018-01-29T05:31:19.155Z,99067.05
2018-01-29T05:32:23.889Z,99055.34
2018-01-29T05:33:29.042Z,99059.11
2018-01-29T05:34:33.987Z,99065.78
2018-01-29T05:35:38.927Z,99061.62
2018-01-29T05:36:43.814Z,99060.00
2018-01-29T05:37:48.779Z,99065.82
2018-01-29T05:38:53.816Z,99051.17
2018-01-29T05:39:58.997Z,99050.35
2018-01-29T05:41:03.853Z,99053.27
2018-01-29T05:42:08.568Z,99052.89
2018-01-29T05:43:13.258Z,99045.02
2018-01-29T05:44:18.105Z,99046.31
2018-01-29T05:45:23.326Z,99049.63
2018-01-29T05:46:27.846Z,99051.31
2018-01-29T05:47:32.401Z,99050.00
2018-01-29T05:48:37.045Z,99046.30
2018-01-29T05:49:41.691Z,99046.33
2018-01-29T05:50:46.681Z,99040.47
2018-01-29T05:51:51.567Z,99049.19
2018-01-29T05:52:56.599Z,99058.39
2018-01-29T05:54:01.342Z,99046.20
2018-01-29T05:55:06.145Z,99054.50
2018-01-29T05:56:10.901Z,99042.45
2018-01-29T05:57:15.816Z,99044.55
2018-01-29T05:58:20.974Z,99042.15
2018-01-29T05:59:25.766Z,99035.59
2018-01-29T06:00:30.621Z,99038.84
2018-01-29T06:01:35.369Z,99049.19
2018-01-29T06:02:40.141Z,99039.73
2018-01-29T06:03:44.878Z,99045.10
2018-01-29T06:04:50.085Z,99041.37
2018-01-29T06:05:54.827Z,99041.76
2018-01-29T06:06:59.583Z,99040.92
2018-01-29T06:08:04.329Z,99044.71
2018-01-29T06:09:09.085Z,99038.87
2018-01-29T06:10:13.867Z,99036.75
2018-01-29T06:11:18.944Z,99038.44
2018-01-29T06:12:23.765Z,99035.56
2018-01-29T06:13:28.816Z,99037.19
2018-01-29T06:14:33.557Z,99025.94
2018-01-29T06:15:38.297Z,99029.61
2018-01-29T06:16:43.043Z,99038.74
2018-01-29T06:17:48.214Z,99034.59
2018-01-29T06:18:53.007Z,99026.68
2018-01-29T06:19:57.861Z,99029.53
2018-01-29T06:21:02.743Z,99035.39
2018-01-29T06:22:07.607Z,99032.08
2018-01-29T06:23:12.208Z,99017.92
2018-01-29T06:24:17.040Z,99023.64
2018-01-29T06:25:21.654Z,99031.58
2018-01-29T06:26:26.271Z,99030.37
2018-01-29T06:27:31.142Z,99034.98
2018-01-29T06:28:35.973Z,99031.31
2018-01-29T06:29:40.770Z,99031.66
2018-01-29T06:30:46.143Z,99031.31
2018-01-29T06:31:51.018Z,99021.69
2018-01-29T06:32:55.783Z,99034.58
2018-01-29T06:34:00.558Z,99018.39
2018-01-29T06:35:05.335Z,99024.63
2018-01-29T06:36:10.222Z,99017.92
2018-01-29T06:37:15.462Z,99018.41
2018-01-29T06:38:20.342Z,99013.84
2018-01-29T06:39:25.248Z,99021.28
2018-01-29T06:40:30.138Z,99022.45
2018-01-29T06:41:34.977Z,99019.58
2018-01-29T06:42:40.782Z,99031.64
2018-01-29T06:43:46.089Z,99014.53
2018-01-29T06:44:51.001Z,99016.61
2018-01-29T06:45:55.825Z,99019.19
2018-01-29T06:47:00.581Z,99012.48
2018-01-29T06:48:05.322Z,99009.59
2018-01-29T06:49:10.062Z,99008.30
2018-01-29T06:50:15.124Z,99006.66
2018-01-29T06:51:19.911Z,99007.44
2018-01-29T06:52:24.722Z,99011.97
2018-01-29T06:53:29.636Z,99015.84
2018-01-29T06:54:34.387Z,99015.91
2018-01-29T06:55:39.195Z,99028.08
2018-01-29T06:56:44.312Z,99010.88
2018-01-29T06:57:49.126Z,99009.31
2018-01-29T06:58:53.932Z,99024.67
2018-01-29T06:59:58.762Z,99019.52
2018-01-29T07:01:03.490Z,99010.47
2018-01-29T07:02:08.294Z,99024.61
2018-01-29T07:03:13.317Z,99011.64
2018-01-29T07:04:18.093Z,99021.00
2018-01-29T07:05:22.860Z,99013.86
2018-01-29T07:06:27.969Z,99014.74
2018-01-29T07:07:32.917Z,99024.81
2018-01-29T07:08:37.678Z,99019.79
2018-01-29T07:09:42.424Z,99019.77
2018-01-29T07:10:47.181Z,99016.92
2018-01-29T07:11:52.003Z,99015.16
2018-01-29T07:12:58.461Z,99024.27
2018-01-29T07:14:03.235Z,99030.05
2018-01-29T07:15:08.369Z,99025.04
2018-01-29T07:16:13.134Z,99018.41
2018-01-29T07:17:17.923Z,99020.36
2018-01-29T07:18:22.725Z,99022.39
2018-01-29T07:19:27.526Z,99017.44
2018-01-29T07:20:32.347Z,99015.35
2018-01-29T07:21:37.572Z,99011.23
2018-01-29T07:22:42.363Z,99012.91
2018-01-29T07:23:47.189Z,99017.87
2018-01-29T07:24:52.061Z,99011.73
2018-01-29T07:25:56.662Z,99007.09
2018-01-29T07:27:01.402Z,99004.99
2018-01-29T07:28:07.279Z,99015.31
2018-01-29T07:29:12.488Z,99013.65
2018-01-29T07:30:17.408Z,99004.09
2018-01-29T07:31:22.186Z,99017.90
2018-01-29T07:32:26.935Z,99009.59
2018-01-29T07:33:31.716Z,99017.87
2018-01-29T07:34:36.947Z,99020.91
2018-01-29T07:35:41.760Z,99015.52
2018-01-29T07:36:46.542Z,99017.25
2018-01-29T07:37:51.310Z,99013.02
2018-01-29T07:38:56.355Z,99007.00
2018-01-29T07:40:01.108Z,99013.23
2018-01-29T07:41:06.159Z,99007.52
2018-01-29T07:42:10.901Z,99005.41
2018-01-29T07:43:15.693Z,99010.98
2018-01-29T07:44:20.440Z,99002.70
2018-01-29T07:45:25.066Z,99003.91
2018-01-29T07:46:29.673Z,99000.89
2018-01-29T07:47:34.612Z,99002.86
2018-01-29T07:48:39.236Z,99002.14
2018-01-29T07:49:43.837Z,98992.11
2018-01-29T07:50:48.439Z,99002.14
2018-01-29T07:51:53.178Z,99010.52
2018-01-29T07:52:57.946Z,98990.45
2018-01-29T07:54:03.282Z,99003.44
2018-01-29T07:55:08.055Z,98994.66
2018-01-29T07:56:12.750Z,98987.86
2018-01-29T07:57:17.568Z,98992.52
2018-01-29T07:58:22.352Z,98981.65
2018-01-29T07:59:28.119Z,98984.95
2018-01-29T08:00:33.131Z,98974.55
2018-01-29T08:01:37.948Z,98984.13
2018-01-29T08:02:43.624Z,98964.54
2018-01-29T08:03:48.430Z,98988.70
2018-01-29T08:04:53.271Z,98987.05
2018-01-29T08:05:58.030Z,98986.59
2018-01-29T08:07:03.217Z,98988.25
2018-01-29T08:08:07.963Z,98996.19
2018-01-29T08:09:12.673Z,98988.80
2018-01-29T08:10:17.417Z,98992.55
2018-01-29T08:11:22.180Z,98987.41
2018-01-29T08:12:27.625Z,98986.22
2018-01-29T08:13:32.927Z,98979.92
2018-01-29T08:14:37.635Z,98974.62
2018-01-29T08:15:42.410Z,98973.77
2018-01-29T08:16:47.182Z,98977.81
2018-01-29T08:17:51.892Z,98977.83
2018-01-29T08:18:56.659Z,98979.52
2018-01-29T08:20:01.763Z,98975.39
2018-01-29T08:21:06.618Z,98975.89
2018-01-29T08:22:11.351Z,98988.75
2018-01-29T08:23:16.089Z,98980.36
2018-01-29T08:24:20.882Z,98984.09
2018-01-29T08:25:25.670Z,98983.17
2018-01-29T08:26:30.832Z,98979.00
2018-01-29T08:27:35.591Z,98984.45
2018-01-29T08:28:40.354Z,98989.05
2018-01-29T08:29:45.071Z,98985.63
2018-01-29T08:30:49.857Z,98987.72
2018-01-29T08:31:54.699Z,98984.44
2018-01-29T08:32:59.849Z,98995.69
2018-01-29T08:34:04.610Z,98986.86
2018-01-29T08:35:09.363Z,98985.69
2018-01-29T08:36:14.164Z,98984.44
2018-01-29T08:37:19.061Z,98976.50
2018-01-29T08:38:24.253Z,98971.91
2018-01-29T08:39:30.374Z,98964.84
2018-01-29T08:40:35.201Z,98975.19
2018-01-29T08:41:39.968Z,98981.74
2018-01-29T08:42:44.732Z,98974.25
2018-01-29T08:43:49.520Z,98977.28
2018-01-29T08:44:54.426Z,98979.83
2018-01-29T08:46:00.169Z,98973.84
2018-01-29T08:47:04.906Z,98970.09
2018-01-29T08:48:09.666Z,98972.16
2018-01-29T08:49:14.457Z,98972.59
2018-01-29T08:50:19.239Z,98980.13
2018-01-29T08:51:24.002Z,98979.72
2018-01-29T08:52:29.125Z,98967.20
2018-01-29T08:53:33.910Z,98965.11
2018-01-29T08:54:38.672Z,98971.25
2018-01-29T08:55:43.558Z,98969.61
2018-01-29T08:56:48.408Z,98967.93
2018-01-29T08:57:53.019Z,98971.23
2018-01-29T08:58:58.037Z,98968.30
2018-01-29T09:00:03.429Z,98970.02
2018-01-29T09:01:08.049Z,98973.45
2018-01-29T09:02:12.646Z,98962.10
2018-01-29T09:03:17.413Z,98965.37
2018-01-29T09:04:22.034Z,98964.20
2018-01-29T09:05:27.140Z,98965.04
2018-01-29T09:06:31.820Z,98965.49
2018-01-29T09:07:36.605Z,98963.70
2018-01-29T09:08:41.394Z,98968.38
2018-01-29T09:09:46.259Z,98965.36
2018-01-29T09:10:51.277Z,98964.86
2018-01-29T09:11:56.411Z,98958.28
2018-01-29T09:13:01.196Z,98965.68
2018-01-29T09:14:05.870Z,98962.88
2018-01-29T09:15:10.616Z,98961.06
2018-01-29T09:16:15.260Z,98965.98
2018-01-29T09:17:19.970Z,98958.53
2018-01-29T09:18:25.159Z,98955.19
2018-01-29T09:19:29.863Z,98967.39
2018-01-29T09:20:34.820Z,98958.35
2018-01-29T09:21:39.494Z,98958.71
2018-01-29T09:22:44.250Z,98961.11
2018-01-29T09:23:49.017Z,98957.55
2018-01-29T09:24:54.086Z,98950.86
2018-01-29T09:25:58.807Z,98952.87
2018-01-29T09:27:03.542Z,98960.33
2018-01-29T09:28:08.323Z,98954.57
2018-01-29T09:29:13.110Z,98968.75
2018-01-29T09:30:17.923Z,98964.02
2018-01-29T09:31:23.015Z,98961.24
2018-01-29T09:32:27.767Z,98957.05
2018-01-29T09:33:32.599Z,98958.17
2018-01-29T09:34:37.460Z,98966.56
2018-01-29T09:35:42.240Z,98963.97
2018-01-29T09:36:47.034Z,98958.17
2018-01-29T09:37:51.985Z,98969.09
2018-01-29T09:38:56.664Z,98959.52
2018-01-29T09:40:01.354Z,98949.88
2018-01-29T09:41:06.146Z,98954.00
2018-01-29T09:42:10.952Z,98951.11
2018-01-29T09:43:15.807Z,98943.23
2018-01-29T09:44:21.099Z,98948.55
2018-01-29T09:45:25.899Z,98950.95
2018-01-29T09:46:30.693Z,98957.73
2018-01-29T09:47:35.587Z,98953.96
2018-01-29T09:48:40.631Z,98954.23
2018-01-29T09:49:45.586Z,98944.99
2018-01-29T09:50:50.826Z,98951.64
2018-01-29T09:51:55.646Z,98957.98
2018-01-29T09:53:00.582Z,98952.91
2018-01-29T09:54:05.406Z,98955.41
2018-01-29T09:55:10.187Z,98933.30
2018-01-29T09:56:15.002Z,98943.66
2018-01-29T09:57:20.940Z,98948.21
2018-01-29T09:58:25.897Z,98937.77
2018-01-29T09:59:30.817Z,98942.29
2018-01-29T10:00:35.704Z,98945.11
2018-01-29T10:01:40.531Z,98958.50
2018-01-29T10:02:45.433Z,98934.61
2018-01-29T10:03:50.555Z,98949.91
2018-01-29T10:04:55.321Z,98945.70
2018-01-29T10:06:00.146Z,98951.25
2018-01-29T10:07:05.015Z,98948.44
2018-01-29T10:08:09.791Z,98944.24
2018-01-29T10:09:14.696Z,98948.39
2018-01-29T10:10:19.471Z,98946.31
2018-01-29T10:11:24.239Z,98934.69
2018-01-29T10:12:29.094Z,98940.83
2018-01-29T10:13:33.855Z,98945.84
2018-01-29T10:14:38.660Z,98943.77
2018-01-29T10:15:43.761Z,98940.10
2018-01-29T10:16:48.497Z,98950.87
2018-01-29T10:17:53.294Z,98941.55
2018-01-29T10:18:58.129Z,98939.82
2018-01-29T10:20:02.934Z,98940.19
2018-01-29T10:21:07.702Z,98936.00
2018-01-29T10:22:12.846Z,98933.81
2018-01-29T10:23:17.697Z,98927.05
2018-01-29T10:24:22.475Z,98935.91
2018-01-29T10:25:27.369Z,98935.06
2018-01-29T10:30:44.235Z,98928.37
2018-01-29T10:34:41.574Z,98917.84
2018-01-29T10:36:02.574Z,98911.97
2018-01-29T10:45:26.637Z,98907.84
2018-01-29T10:49:53.885Z,98895.81
2018-01-29T10:52:57.943Z,98903.03
2018-01-29T10:58:57.030Z,98894.33
2018-01-29T11:00:18.104Z,98897.07
2018-01-29T11:01:52.624Z,98893.03
2018-01-29T11:03:07.388Z,98884.55
2018-01-29T11:09:45.621Z,98883.99
2018-01-29T11:10:59.553Z,98877.70
2018-01-29T11:13:55.354Z,98884.95
2018-01-29T11:15:56.505Z,98884.12
2018-01-29T11:21:36.025Z,98862.27
2018-01-29T11:22:51.455Z,98863.93
2018-01-29T11:36:57.869Z,98856.90
2018-01-29T11:38:17.365Z,98817.67
2018-01-29T11:41:18.131Z,98836.27
2018-01-29T11:43:07.146Z,98825.22
2018-01-29T11:44:17.983Z,98833.16
2018-01-29T11:48:35.442Z,98821.93
2018-01-29T11:50:04.619Z,98820.30
2018-01-29T11:55:48.663Z,98800.16
2018-01-29T11:57:26.076Z,98802.25
2018-01-29T12:02:53.363Z,98792.31
2018-01-29T12:04:15.803Z,98779.91
2018-01-29T12:08:17.694Z,98797.44
2018-01-29T12:13:35.520Z,98765.05
2018-01-29T12:15:16.517Z,98773.03
2018-01-29T12:19:23.593Z,98761.13
2018-01-29T12:25:09.363Z,98756.58
2018-01-29T12:26:24.039Z,98740.64
2018-01-29T12:27:37.754Z,98755.86
2018-01-29T12:29:00.623Z,98763.03
2018-01-29T12:40:29.543Z,98720.34
2018-01-29T12:46:41.519Z,98716.25
2018-01-29T12:47:57.022Z,98727.83
2018-01-29T12:49:19.837Z,98731.16
2018-01-29T12:50:36.578Z,98732.13
2018-01-29T12:53:10.501Z,98722.16
2018-01-29T12:55:56.219Z,98724.72
2018-01-29T12:57:32.071Z,98733.85
2018-01-29T13:08:46.307Z,98692.83
2018-01-29T13:13:05.962Z,98689.58
2018-01-29T13:14:25.547Z,98695.38
2018-01-29T13:16:53.471Z,98687.80
2018-01-29T13:18:06.022Z,98694.03
2018-01-29T13:24:30.210Z,98677.39
2018-01-29T13:25:48.611Z,98660.55
2018-01-29T13:28:36.105Z,98656.91
2018-01-29T13:29:55.261Z,98659.00
2018-01-29T13:33:58.155Z,98662.41
2018-01-29T13:35:19.569Z,98667.36
2018-01-29T13:45:16.476Z,98643.64
2018-01-29T13:46:33.672Z,98631.03
2018-01-29T13:51:05.990Z,98625.94
2018-01-29T14:05:11.679Z,98607.84
2018-01-29T14:06:37.505Z,98569.31
2018-01-29T14:07:56.541Z,98621.04
2018-01-29T14:45:13.765Z,98576.28
2018-01-29T14:48:02.986Z,98576.57
2018-01-29T14:49:20.258Z,98592.07
2018-01-29T14:50:40.819Z,98588.11
2018-01-29T14:51:53.753Z,98587.76
2018-01-29T14:53:14.778Z,98603.64
2018-01-29T14:59:38.485Z,98590.61
2018-01-29T15:08:38.718Z,98552.85
2018-01-29T15:12:16.524Z,98564.89
2018-01-29T15:17:40.531Z,98558.97
2018-01-29T19:55:58.468Z,98533.14
2018-01-29T19:58:37.989Z,98515.58
2018-01-29T21:24:47.229Z,98754.41
2018-01-29T21:26:22.230Z,98742.30
2018-01-29T21:29:38.024Z,98745.95
2018-01-29T21:32:30.487Z,98749.03
2018-01-29T21:35:45.855Z,98778.77
2018-01-29T21:54:23.082Z,98819.35
2018-01-29T22:03:11.716Z,98830.71
2018-01-29T22:08:02.127Z,98848.47
2018-01-29T22:10:36.080Z,98857.14
2018-01-29T22:18:14.787Z,98858.41
2018-01-29T22:20:44.704Z,98860.69
2018-01-29T22:26:09.276Z,98858.53
2018-01-29T22:31:59.293Z,98878.86
2018-01-29T22:33:10.400Z,98888.00
2018-01-29T22:37:35.100Z,98885.55
2018-01-29T22:46:54.952Z,98896.98
2018-01-29T23:11:18.866Z,98929.83
2018-01-29T23:31:56.933Z,98972.28
2018-01-29T23:42:13.230Z,98988.50
2018-01-29T23:56:07.212Z,98992.71
